Time;durP1;ratioP1;P1;durP2;ratioP2;P2;SDS_P1;SDS_P2;PMS_P1;PMS_P2;Temp;Humidity;BMP_temperature;BMP_pressure;BME280_temperature;BME280_humidity;BME280_pressure;Samples;Min_cycle;Max_cycle;Signal;HPM_P1;HPM_P2
2022/03/22 00:00:29;;;;;;;;;21.50;19.00;;;;;-146.03;100.00;60875.16;4990874;28;45462;-91
2022/03/22 00:02:55;;;;;;;;;22.50;19.50;;;;;-146.03;100.00;60875.16;5012588;28;45406;-90
2022/03/22 00:05:22;;;;;;;;;27.25;24.00;;;;;-146.03;100.00;60875.16;4996270;28;46338;-90
2022/03/22 00:07:48;;;;;;;;;23.75;20.50;;;;;-146.03;100.00;60875.16;5009877;28;45797;-89
2022/03/22 00:10:14;;;;;;;;;26.50;26.25;;;;;-146.03;100.00;60875.16;4991789;28;45904;-90
2022/03/22 00:12:40;;;;;;;;;21.25;18.75;;;;;-146.03;100.00;60875.16;4993681;28;48427;-87
2022/03/22 00:15:06;;;;;;;;;23.50;23.50;;;;;-146.03;100.00;60875.16;5005908;28;45533;-89
2022/03/22 00:17:32;;;;;;;;;22.25;22.25;;;;;-146.03;100.00;60875.16;5003569;28;45489;-88
2022/03/22 00:19:57;;;;;;;;;23.00;23.00;;;;;-146.03;100.00;60875.16;4991436;28;45422;-89
2022/03/22 00:22:24;;;;;;;;;22.00;18.50;;;;;-146.03;100.00;60875.16;5005492;28;46003;-88
2022/03/22 00:24:49;;;;;;;;;16.00;13.75;;;;;-146.03;100.00;60875.16;5009536;28;45540;-88
2022/03/22 00:27:15;;;;;;;;;20.50;20.00;;;;;-146.03;100.00;60875.16;5005937;28;45448;-88
2022/03/22 00:29:40;;;;;;;;;19.75;18.00;;;;;-146.03;100.00;60875.16;5004721;28;45453;-89
2022/03/22 00:32:08;;;;;;;;;21.25;19.25;;;;;-146.03;100.00;60875.16;4992008;28;48370;-87
2022/03/22 00:34:35;;;;;;;;;22.25;21.75;;;;;-146.03;100.00;60875.16;4993530;28;45447;-89
2022/03/22 00:37:00;;;;;;;;;18.25;18.00;;;;;-146.03;100.00;60875.16;4986198;28;45997;-90
2022/03/22 00:39:26;;;;;;;;;18.25;18.25;;;;;-146.03;100.00;60875.16;4983929;28;45609;-92
2022/03/22 00:41:53;;;;;;;;;19.75;18.00;;;;;-146.03;100.00;60875.16;5007569;28;46176;-92
2022/03/22 00:44:19;;;;;;;;;23.00;21.25;;;;;-146.03;100.00;60875.16;5010510;28;46060;-90
2022/03/22 00:46:45;;;;;;;;;19.25;19.25;;;;;-146.03;100.00;60875.16;5009572;28;45454;-90
2022/03/22 00:49:10;;;;;;;;;19.25;19.25;;;;;-146.03;100.00;60875.16;5005058;28;45367;-91
2022/03/22 00:51:35;;;;;;;;;17.75;15.00;;;;;-146.03;100.00;60875.16;4990573;28;47251;-90
2022/03/22 00:54:02;;;;;;;;;16.75;16.75;;;;;-146.03;100.00;60875.16;5008943;28;45709;-90
2022/03/22 00:56:31;;;;;;;;;22.50;19.75;;;;;-146.03;100.00;60875.16;4992503;28;45321;-89
2022/03/22 01:01:41;;;;;;;;;18.50;18.00;;;;;-146.03;100.00;60875.16;5006676;28;45791;-90
2022/03/22 01:04:06;;;;;;;;;17.50;16.25;;;;;-146.03;100.00;60875.16;4993191;28;45406;-90
2022/03/22 01:06:33;;;;;;;;;21.50;21.50;;;;;-146.03;100.00;60875.16;4989176;28;45783;-91
2022/03/22 01:08:59;;;;;;;;;19.00;16.00;;;;;-146.03;100.00;60875.16;5006777;28;45470;-89
2022/03/22 01:11:24;;;;;;;;;20.50;18.50;;;;;-146.03;100.00;60875.16;4996823;28;47525;-90
2022/03/22 01:13:50;;;;;;;;;23.00;19.75;;;;;-146.03;100.00;60875.16;4993208;28;45366;-91
2022/03/22 01:16:15;;;;;;;;;22.75;18.75;;;;;-146.03;100.00;60875.16;5002790;28;46048;-91
2022/03/22 01:18:41;;;;;;;;;21.00;18.50;;;;;-146.03;100.00;60875.16;4993337;28;46264;-91
2022/03/22 01:21:08;;;;;;;;;20.00;19.25;;;;;-146.03;100.00;60875.16;5010873;28;45968;-89
2022/03/22 01:23:33;;;;;;;;;19.75;18.50;;;;;-146.03;100.00;60875.16;5010465;28;45921;-90
2022/03/22 01:25:58;;;;;;;;;20.00;19.00;;;;;-146.03;100.00;60875.16;5014985;28;45390;-90
2022/03/22 01:28:24;;;;;;;;;21.25;19.75;;;;;-146.03;100.00;60875.16;5013795;28;45378;-89
2022/03/22 01:30:49;;;;;;;;;19.75;17.00;;;;;-146.03;100.00;60875.16;5012841;28;47731;-91
2022/03/22 01:33:15;;;;;;;;;22.50;22.50;;;;;-146.03;100.00;60875.16;5005233;28;47375;-89
2022/03/22 01:35:41;;;;;;;;;21.00;21.00;;;;;-146.03;100.00;60875.16;5012856;28;45370;-91
2022/03/22 01:38:07;;;;;;;;;24.50;21.00;;;;;-146.03;100.00;60875.16;5014616;28;45655;-91
2022/03/22 01:40:33;;;;;;;;;19.00;18.00;;;;;-146.03;100.00;60875.16;4994767;28;48374;-91
2022/03/22 01:42:59;;;;;;;;;22.25;18.75;;;;;-146.03;100.00;60875.16;5017851;28;46062;-90
2022/03/22 01:45:25;;;;;;;;;19.75;16.50;;;;;-146.03;100.00;60875.16;4996418;28;45466;-89
2022/03/22 01:47:52;;;;;;;;;19.50;17.25;;;;;-146.03;100.00;60875.16;5015227;28;45565;-90
2022/03/22 01:50:19;;;;;;;;;25.00;19.75;;;;;-146.03;100.00;60875.16;4985158;28;48430;-89
2022/03/22 01:52:46;;;;;;;;;18.25;17.25;;;;;-146.03;100.00;60875.16;5011750;28;45418;-89
2022/03/22 01:55:14;;;;;;;;;21.00;17.75;;;;;-146.03;100.00;60875.16;5015788;28;45455;-89
2022/03/22 01:57:40;;;;;;;;;20.75;20.00;;;;;-146.03;100.00;60875.16;5016908;28;45388;-89
2022/03/22 02:00:09;;;;;;;;;24.25;19.50;;;;;-146.03;100.00;60875.16;5016921;28;45543;-90
2022/03/22 02:08:00;;;;;;;;;18.75;18.25;;;;;-146.03;100.00;60875.16;4971348;28;45422;-90
2022/03/22 02:10:26;;;;;;;;;14.75;14.75;;;;;-146.03;100.00;60875.16;4974436;28;47253;-91
2022/03/22 02:12:51;;;;;;;;;16.50;16.50;;;;;-146.03;100.00;60875.16;4967569;28;45316;-90
2022/03/22 02:15:17;;;;;;;;;20.25;16.00;;;;;-146.03;100.00;60875.16;4983041;28;46234;-90
2022/03/22 02:17:45;;;;;;;;;19.75;18.75;;;;;-146.03;100.00;60875.16;4986868;28;45473;-89
2022/03/22 02:20:14;;;;;;;;;19.00;16.25;;;;;-146.03;100.00;60875.16;4976873;28;45516;-89
2022/03/22 02:23:03;;;;;;;;;18.25;18.25;;;;;-146.03;100.00;60875.16;4963092;28;45584;-89
2022/03/22 02:25:28;;;;;;;;;17.75;17.00;;;;;-146.03;100.00;60875.16;4967835;28;45922;-91
2022/03/22 02:27:54;;;;;;;;;20.00;17.75;;;;;-146.03;100.00;60875.16;4977009;28;45386;-91
2022/03/22 02:30:20;;;;;;;;;18.75;17.00;;;;;-146.03;100.00;60875.16;4968842;28;46591;-91
2022/03/22 02:32:50;;;;;;;;;19.50;19.50;;;;;-146.03;100.00;60875.16;4971377;28;45636;-91
2022/03/22 02:35:16;;;;;;;;;21.00;19.25;;;;;-146.03;100.00;60875.16;4975025;28;45457;-90
2022/03/22 02:37:41;;;;;;;;;22.50;19.00;;;;;-146.03;100.00;60875.16;4971760;28;45299;-91
2022/03/22 02:40:07;;;;;;;;;16.75;16.75;;;;;-146.03;100.00;60875.16;4968692;28;48193;-90
2022/03/22 02:42:33;;;;;;;;;17.75;16.75;;;;;-146.03;100.00;60875.16;4970583;28;45249;-92
2022/03/22 02:44:58;;;;;;;;;15.75;14.75;;;;;-146.03;100.00;60875.16;4973903;28;45510;-92
2022/03/22 02:47:23;;;;;;;;;20.25;20.25;;;;;-146.03;100.00;60875.16;4972454;28;45581;-92
2022/03/22 02:49:49;;;;;;;;;19.75;19.00;;;;;-146.03;100.00;60875.16;4960801;28;47570;-93
2022/03/22 02:52:14;;;;;;;;;23.50;21.50;;;;;-146.03;100.00;60875.16;4977389;28;51291;-94
2022/03/22 02:54:39;;;;;;;;;22.75;18.00;;;;;-146.03;100.00;60875.16;4978150;28;45286;-93
2022/03/22 02:57:05;;;;;;;;;19.25;19.25;;;;;-146.03;100.00;60875.16;4973938;28;45620;-93
2022/03/22 02:59:30;;;;;;;;;18.75;17.25;;;;;-146.03;100.00;60875.16;4965556;28;46526;-92
2022/03/22 03:01:57;;;;;;;;;22.50;21.00;;;;;-146.03;100.00;60875.16;4976059;28;45471;-89
2022/03/22 03:04:23;;;;;;;;;19.50;18.50;;;;;-146.03;100.00;60875.16;4961964;28;45524;-89
2022/03/22 03:06:48;;;;;;;;;21.50;21.00;;;;;-146.03;100.00;60875.16;4975618;28;45421;-92
2022/03/22 03:09:13;;;;;;;;;20.50;18.75;;;;;-146.03;100.00;60875.16;4977093;28;45412;-93
2022/03/22 03:11:39;;;;;;;;;17.50;17.50;;;;;-146.03;100.00;60875.16;4977213;28;46057;-92
2022/03/22 03:16:48;;;;;;;;;20.00;18.00;;;;;-146.03;100.00;60875.16;4978069;28;45295;-93
2022/03/22 03:19:13;;;;;;;;;19.25;17.50;;;;;-146.03;100.00;60875.16;4960228;28;46571;-90
2022/03/22 03:21:39;;;;;;;;;18.50;16.00;;;;;-146.03;100.00;60875.16;4965810;28;46064;-93
2022/03/22 03:24:04;;;;;;;;;23.00;20.75;;;;;-146.03;100.00;60875.16;4974718;28;45462;-92
2022/03/22 03:26:29;;;;;;;;;22.50;20.50;;;;;-146.03;100.00;60875.16;4970331;28;45633;-90
2022/03/22 03:28:55;;;;;;;;;23.25;22.00;;;;;-146.03;100.00;60875.16;4957807;28;55087;-91
2022/03/22 03:31:20;;;;;;;;;19.25;18.25;;;;;-146.03;100.00;60875.16;4956634;28;45417;-91
2022/03/22 03:33:45;;;;;;;;;23.50;19.25;;;;;-146.03;100.00;60875.16;4973711;28;45444;-91
2022/03/22 03:36:11;;;;;;;;;21.50;18.50;;;;;-146.03;100.00;60875.16;4965545;28;45379;-89
2022/03/22 03:38:41;;;;;;;;;23.25;21.00;;;;;-146.03;100.00;60875.16;4958724;28;46022;-91
2022/03/22 03:43:55;;;;;;;;;22.75;21.25;;;;;-146.03;100.00;60875.16;4961305;28;45430;-91
2022/03/22 03:49:06;;;;;;;;;26.75;22.00;;;;;-146.03;100.00;60875.16;4959800;28;45446;-92
2022/03/22 03:51:33;;;;;;;;;22.75;21.00;;;;;-146.03;100.00;60875.16;4968510;28;45562;-91
2022/03/22 03:53:58;;;;;;;;;24.25;21.00;;;;;-146.03;100.00;60875.16;4967659;28;45343;-92
2022/03/22 03:56:23;;;;;;;;;20.25;18.50;;;;;-146.03;100.00;60875.16;4974699;28;45591;-91
2022/03/22 03:58:49;;;;;;;;;28.75;23.50;;;;;-146.03;100.00;60875.16;4975758;28;48118;-91
2022/03/22 04:01:14;;;;;;;;;25.00;24.25;;;;;-146.03;100.00;60875.16;4975144;28;45370;-92
2022/03/22 04:03:39;;;;;;;;;19.25;19.00;;;;;-146.03;100.00;60875.16;4972974;28;45356;-91
2022/03/22 04:06:05;;;;;;;;;19.75;18.50;;;;;-146.03;100.00;60875.16;4974602;28;45461;-91
2022/03/22 04:08:31;;;;;;;;;26.75;23.50;;;;;-146.03;100.00;60875.16;4975188;28;47458;-90
2022/03/22 04:10:56;;;;;;;;;19.25;19.00;;;;;-146.03;100.00;60875.16;4973156;28;45953;-91
2022/03/22 04:13:21;;;;;;;;;24.00;22.25;;;;;-146.03;100.00;60875.16;4956250;28;45386;-91
2022/03/22 04:15:47;;;;;;;;;26.25;23.25;;;;;-146.03;100.00;60875.16;4960804;28;45533;-91
2022/03/22 04:18:12;;;;;;;;;23.00;23.00;;;;;-146.03;100.00;60875.16;4962598;28;48460;-91
2022/03/22 04:20:37;;;;;;;;;22.75;20.00;;;;;-146.03;100.00;60875.16;4973533;28;46322;-92
2022/03/22 04:23:03;;;;;;;;;20.00;20.00;;;;;-146.03;100.00;60875.16;4973058;28;45527;-91
2022/03/22 04:25:29;;;;;;;;;21.00;20.50;;;;;-146.03;100.00;60875.16;4975659;28;45308;-91
2022/03/22 04:33:23;;;;;;;;;24.75;24.00;;;;;-146.03;100.00;60875.16;4982741;28;45595;-90
2022/03/22 04:35:48;;;;;;;;;26.75;21.50;;;;;-146.03;100.00;60875.16;4976274;28;44947;-90
2022/03/22 04:38:13;;;;;;;;;25.50;21.00;;;;;-146.03;100.00;60875.16;4971145;28;46200;-90
2022/03/22 04:40:40;;;;;;;;;24.00;21.00;;;;;-146.03;100.00;60875.16;4974613;28;45760;-91
2022/03/22 04:43:06;;;;;;;;;24.75;22.00;;;;;-146.03;100.00;60875.16;4957994;28;45600;-90
2022/03/22 04:45:32;;;;;;;;;27.25;24.00;;;;;-146.03;100.00;60875.16;4967667;28;45494;-91
2022/03/22 04:47:57;;;;;;;;;28.25;23.75;;;;;-146.03;100.00;60875.16;4968815;28;47845;-91
2022/03/22 04:50:22;;;;;;;;;21.50;19.75;;;;;-146.03;100.00;60875.16;4973551;28;45390;-92
2022/03/22 04:56:43;;;;;;;;;26.50;21.75;;;;;-146.03;100.00;60875.16;4972253;28;45331;-91
2022/03/22 04:58:35;;;;;;;;;29.00;21.25;;;;;-146.03;100.00;60875.16;4971817;28;45657;-89
2022/03/22 05:01:01;;;;;;;;;22.25;19.25;;;;;-146.03;100.00;60875.16;4976056;28;45390;-89
2022/03/22 05:03:26;;;;;;;;;22.50;22.50;;;;;-146.03;100.00;60875.16;4968343;28;45505;-89
2022/03/22 05:08:35;;;;;;;;;21.25;20.75;;;;;-146.03;100.00;60875.16;4961303;28;45276;-90
2022/03/22 05:11:00;;;;;;;;;29.50;25.50;;;;;-146.03;100.00;60875.16;4959088;28;45359;-92
2022/03/22 05:13:26;;;;;;;;;22.00;21.25;;;;;-146.03;100.00;60875.16;4955344;28;48613;-91
2022/03/22 05:15:52;;;;;;;;;24.25;21.00;;;;;-146.03;100.00;60875.16;4968703;28;45503;-90
2022/03/22 05:18:17;;;;;;;;;25.50;21.75;;;;;-146.03;100.00;60875.16;4969827;28;47522;-91
2022/03/22 05:20:43;;;;;;;;;23.75;22.00;;;;;-146.03;100.00;60875.16;4962239;28;45505;-91
2022/03/22 05:23:08;;;;;;;;;25.25;22.50;;;;;-146.03;100.00;60875.16;4975811;28;45441;-91
2022/03/22 05:25:33;;;;;;;;;23.00;20.25;;;;;-146.03;100.00;60875.16;4977822;28;45548;-91
2022/03/22 05:28:03;;;;;;;;;27.00;24.75;;;;;-146.03;100.00;60875.16;4975783;28;47394;-90
2022/03/22 05:30:29;;;;;;;;;24.75;22.00;;;;;-146.03;100.00;60875.16;4976206;28;45428;-91
2022/03/22 05:32:55;;;;;;;;;18.50;16.75;;;;;-146.03;100.00;60875.16;4972299;28;45382;-91
2022/03/22 05:35:20;;;;;;;;;23.75;23.25;;;;;-146.03;100.00;60875.16;4960432;28;45480;-91
2022/03/22 05:37:46;;;;;;;;;25.50;24.75;;;;;-146.03;100.00;60875.16;4975145;28;47533;-91
2022/03/22 05:40:12;;;;;;;;;24.75;23.00;;;;;-146.03;100.00;60875.16;4975727;28;45458;-92
2022/03/22 05:42:39;;;;;;;;;28.25;26.50;;;;;-146.03;100.00;60875.16;4978363;28;45385;-91
2022/03/22 05:45:07;;;;;;;;;24.00;23.75;;;;;-146.03;100.00;60875.16;4973942;28;45368;-92
2022/03/22 05:47:32;;;;;;;;;29.25;25.00;;;;;-146.03;100.00;60875.16;4960319;28;47158;-90
2022/03/22 05:49:57;;;;;;;;;25.75;25.25;;;;;-146.03;100.00;60875.16;4959167;28;45673;-91
2022/03/22 05:52:23;;;;;;;;;28.50;23.75;;;;;-146.03;100.00;60875.16;4963440;28;45434;-90
2022/03/22 05:54:48;;;;;;;;;24.00;23.50;;;;;-146.03;100.00;60875.16;4972332;28;45370;-90
2022/03/22 05:57:13;;;;;;;;;32.50;27.00;;;;;-146.03;100.00;60875.16;4966694;28;45450;-90
2022/03/22 05:59:39;;;;;;;;;25.00;25.00;;;;;-146.03;100.00;60875.16;4962612;28;45360;-90
2022/03/22 06:02:04;;;;;;;;;27.75;24.00;;;;;-146.03;100.00;60875.16;4960073;28;45244;-89
2022/03/22 06:04:30;;;;;;;;;27.00;24.25;;;;;-146.03;100.00;60875.16;4972908;28;45406;-90
2022/03/22 06:06:55;;;;;;;;;25.25;24.50;;;;;-146.03;100.00;60875.16;4975300;28;47894;-91
2022/03/22 06:09:20;;;;;;;;;26.00;23.75;;;;;-146.03;100.00;60875.16;4976186;28;46630;-91
2022/03/22 06:11:46;;;;;;;;;27.50;23.50;;;;;-146.03;100.00;60875.16;4970661;28;45352;-91
2022/03/22 06:14:12;;;;;;;;;29.25;24.25;;;;;-146.03;100.00;60875.16;4974958;28;45374;-90
2022/03/22 06:16:37;;;;;;;;;27.50;26.25;;;;;-146.03;100.00;60875.16;4962131;28;46647;-91
2022/03/22 06:19:02;;;;;;;;;27.75;23.75;;;;;-146.03;100.00;60875.16;4961157;28;45501;-91
2022/03/22 06:21:28;;;;;;;;;23.25;22.50;;;;;-146.03;100.00;60875.16;4969797;28;45483;-90
2022/03/22 06:23:53;;;;;;;;;30.00;26.50;;;;;-146.03;100.00;60875.16;4968538;28;45411;-91
2022/03/22 06:26:19;;;;;;;;;26.75;24.75;;;;;-146.03;100.00;60875.16;4974134;28;46434;-91
2022/03/22 06:28:44;;;;;;;;;27.25;26.75;;;;;-146.03;100.00;60875.16;4974526;28;45649;-90
2022/03/22 06:31:10;;;;;;;;;29.25;25.75;;;;;-146.03;100.00;60875.16;4970124;28;45449;-91
2022/03/22 06:33:35;;;;;;;;;28.25;23.00;;;;;-146.03;100.00;60875.16;4965303;28;45535;-91
2022/03/22 06:36:02;;;;;;;;;28.50;25.75;;;;;-146.03;100.00;60875.16;4961607;28;58997;-90
2022/03/22 06:38:32;;;;;;;;;24.50;22.00;;;;;-146.03;100.00;60875.16;4973752;28;45295;-93
2022/03/22 06:40:57;;;;;;;;;30.25;28.00;;;;;-146.03;100.00;60875.16;4961908;28;45354;-92
2022/03/22 06:43:23;;;;;;;;;30.25;26.25;;;;;-146.03;100.00;60875.16;4977334;28;45719;-91
2022/03/22 06:45:48;;;;;;;;;26.00;25.25;;;;;-146.03;100.00;60875.16;4975410;28;47675;-90
2022/03/22 06:48:17;;;;;;;;;28.75;25.75;;;;;-146.03;100.00;60875.16;4967275;28;45964;-89
2022/03/22 06:50:47;;;;;;;;;32.00;30.25;;;;;-146.03;100.00;60875.16;4961051;28;45828;-87
2022/03/22 06:53:12;;;;;;;;;31.25;29.75;;;;;-146.03;100.00;60875.16;4973610;28;45412;-88
2022/03/22 06:55:38;;;;;;;;;28.00;25.50;;;;;-146.03;100.00;60875.16;4964898;28;46318;-88
2022/03/22 06:58:05;;;;;;;;;28.00;25.00;;;;;-146.03;100.00;60875.16;4959549;28;45520;-88
2022/03/22 07:00:31;;;;;;;;;30.25;29.50;;;;;-146.03;100.00;60875.16;4966545;28;46944;-91
2022/03/22 07:02:57;;;;;;;;;32.00;27.50;;;;;-146.03;100.00;60875.16;4963990;28;45588;-93
2022/03/22 07:05:23;;;;;;;;;30.25;26.00;;;;;-146.03;100.00;60875.16;4961529;28;45447;-91
2022/03/22 07:07:48;;;;;;;;;31.50;26.75;;;;;-146.03;100.00;60875.16;4972252;28;45497;-93
2022/03/22 07:10:16;;;;;;;;;25.75;24.00;;;;;-146.03;100.00;60875.16;4974371;28;45316;-92
2022/03/22 07:12:59;;;;;;;;;29.50;29.25;;;;;-146.03;100.00;60875.16;4975796;28;45524;-90
2022/03/22 07:15:30;;;;;;;;;28.75;28.75;;;;;-146.03;100.00;60875.16;4975199;28;48045;-92
2022/03/22 07:18:03;;;;;;;;;28.50;28.50;;;;;-146.03;100.00;60875.16;4968948;28;45272;-92
2022/03/22 07:20:29;;;;;;;;;28.25;25.75;;;;;-146.03;100.00;60875.16;4959283;28;45724;-91
2022/03/22 07:22:55;;;;;;;;;27.75;24.00;;;;;-146.03;100.00;60875.16;4967464;28;45542;-88
2022/03/22 07:25:21;;;;;;;;;28.75;26.00;;;;;-146.03;100.00;60875.16;4970488;28;45535;-88
2022/03/22 07:27:46;;;;;;;;;34.00;28.00;;;;;-146.03;100.00;60875.16;4974554;28;46638;-88
2022/03/22 07:30:12;;;;;;;;;33.00;30.00;;;;;-146.03;100.00;60875.16;4968563;28;45436;-88
2022/03/22 07:32:43;;;;;;;;;25.50;23.75;;;;;-146.03;100.00;60875.16;4962382;28;45543;-88
2022/03/22 07:35:10;;;;;;;;;28.50;24.50;;;;;-146.03;100.00;60875.16;4958390;28;45460;-88
2022/03/22 07:37:36;;;;;;;;;31.75;27.50;;;;;-146.03;100.00;60875.16;4961125;28;45304;-89
2022/03/22 07:40:09;;;;;;;;;30.25;27.25;;;;;-146.03;100.00;60875.16;4961719;28;45335;-88
2022/03/22 07:42:35;;;;;;;;;27.00;26.50;;;;;-146.03;100.00;60875.16;4968651;28;45513;-88
2022/03/22 07:45:05;;;;;;;;;23.25;21.25;;;;;-146.03;100.00;60875.16;4971147;28;47726;-88
2022/03/22 07:47:31;;;;;;;;;30.25;25.25;;;;;-146.03;100.00;60875.16;4962741;28;46130;-88
2022/03/22 07:55:27;;;;;;;;;32.75;28.75;;;;;-146.03;100.00;60875.16;4961106;28;45292;-87
2022/03/22 07:57:52;;;;;;;;;25.50;25.50;;;;;-146.03;100.00;60875.16;4959068;28;45309;-87
2022/03/22 08:00:18;;;;;;;;;28.00;26.00;;;;;-146.03;100.00;60875.16;4960017;28;45498;-87
2022/03/22 08:02:54;;;;;;;;;28.50;28.25;;;;;-146.03;100.00;60875.16;4962842;28;45367;-88
2022/03/22 08:05:21;;;;;;;;;25.75;25.25;;;;;-146.03;100.00;60875.16;4959043;28;45971;-87
2022/03/22 08:07:46;;;;;;;;;29.00;26.00;;;;;-146.03;100.00;60875.16;4956599;28;45367;-85
2022/03/22 08:10:13;;;;;;;;;28.75;28.75;;;;;-146.03;100.00;60875.16;4958881;28;45443;-88
2022/03/22 08:12:38;;;;;;;;;34.00;30.00;;;;;-146.03;100.00;60875.16;4966919;28;45578;-88
2022/03/22 08:15:04;;;;;;;;;31.00;29.00;;;;;-146.03;100.00;60875.16;4958215;28;45323;-87
2022/03/22 08:17:30;;;;;;;;;27.25;27.00;;;;;-146.03;100.00;60875.16;4956620;28;45248;-89
2022/03/22 08:19:55;;;;;;;;;30.25;28.50;;;;;-146.03;100.00;60875.16;4974732;28;45554;-89
2022/03/22 08:22:20;;;;;;;;;28.75;26.25;;;;;-146.03;100.00;60875.16;4958551;28;45448;-88
2022/03/22 08:24:45;;;;;;;;;35.75;27.25;;;;;-146.03;100.00;60875.16;4961361;28;45344;-88
2022/03/22 08:27:11;;;;;;;;;26.50;22.50;;;;;-146.03;100.00;60875.16;4958391;28;45426;-87
2022/03/22 08:29:36;;;;;;;;;29.75;28.50;;;;;-146.03;100.00;60875.16;4967755;28;45465;-88
2022/03/22 08:32:02;;;;;;;;;26.25;23.75;;;;;-146.03;100.00;60875.16;4964824;28;45329;-87
2022/03/22 08:34:28;;;;;;;;;22.75;21.75;;;;;-146.03;100.00;60875.16;4963847;28;46997;-87
2022/03/22 08:36:54;;;;;;;;;19.25;19.25;;;;;-146.03;100.00;60875.16;4971669;28;45494;-88
2022/03/22 08:39:19;;;;;;;;;30.75;23.50;;;;;-146.03;100.00;60875.16;4966858;28;45377;-88
2022/03/22 08:41:45;;;;;;;;;22.50;21.25;;;;;-146.03;100.00;60875.16;4968353;28;45367;-88
2022/03/22 08:44:11;;;;;;;;;22.50;19.75;;;;;-146.03;100.00;60875.16;4961069;28;45455;-88
2022/03/22 08:46:37;;;;;;;;;20.25;20.25;;;;;-146.03;100.00;60875.16;4959731;28;45419;-86
2022/03/22 08:49:02;;;;;;;;;21.50;20.75;;;;;-146.03;100.00;60875.16;4968198;28;45512;-87
2022/03/22 08:51:27;;;;;;;;;23.00;22.25;;;;;-146.03;100.00;60875.16;4969414;28;45580;-87
2022/03/22 08:53:54;;;;;;;;;21.75;18.75;;;;;-146.03;100.00;60875.16;4976664;28;46018;-88
2022/03/22 08:56:22;;;;;;;;;21.50;20.25;;;;;-146.03;100.00;60875.16;4962332;28;45296;-88
2022/03/22 08:58:52;;;;;;;;;22.25;20.75;;;;;-146.03;100.00;60875.16;4985808;28;45370;-88
2022/03/22 09:01:17;;;;;;;;;26.00;20.75;;;;;-146.03;100.00;60875.16;4976145;28;45595;-88
2022/03/22 09:03:43;;;;;;;;;28.25;23.75;;;;;-146.03;100.00;60875.16;4966678;28;46949;-88
2022/03/22 09:06:08;;;;;;;;;24.50;22.75;;;;;-146.03;100.00;60875.16;4967699;28;45399;-89
2022/03/22 09:08:38;;;;;;;;;19.00;18.50;;;;;-146.03;100.00;60875.16;4976071;28;45391;-89
2022/03/22 09:11:05;;;;;;;;;19.00;19.00;;;;;-146.03;100.00;60875.16;4974190;28;45421;-88
2022/03/22 09:13:30;;;;;;;;;28.00;24.75;;;;;-146.03;100.00;60875.16;4960143;28;45433;-90
2022/03/22 09:15:56;;;;;;;;;22.50;20.75;;;;;-146.03;100.00;60875.16;4971472;28;45697;-87
2022/03/22 09:18:22;;;;;;;;;20.25;18.75;;;;;-146.03;100.00;60875.16;4967898;28;45717;-89
2022/03/22 09:20:48;;;;;;;;;27.25;22.50;;;;;-146.03;100.00;60875.16;4969153;28;45555;-84
2022/03/22 09:23:13;;;;;;;;;20.25;19.25;;;;;-146.03;100.00;60875.16;4969472;28;46125;-88
2022/03/22 09:25:41;;;;;;;;;21.00;21.00;;;;;-146.03;100.00;60875.16;4960836;28;46276;-88
2022/03/22 09:28:07;;;;;;;;;21.25;21.25;;;;;-146.03;100.00;60875.16;4962088;28;45535;-88
2022/03/22 09:30:34;;;;;;;;;19.75;17.00;;;;;-146.03;100.00;60875.16;4976646;28;45546;-87
2022/03/22 09:33:01;;;;;;;;;21.00;18.50;;;;;-146.03;100.00;60875.16;4984402;28;47426;-88
2022/03/22 09:35:28;;;;;;;;;18.25;18.25;;;;;-146.03;100.00;60875.16;4978823;28;45617;-88
2022/03/22 09:37:54;;;;;;;;;19.50;16.25;;;;;-146.03;100.00;60875.16;4960934;28;45494;-88
2022/03/22 09:40:19;;;;;;;;;19.25;18.00;;;;;-146.03;100.00;60875.16;4972603;28;45395;-88
2022/03/22 09:42:49;;;;;;;;;18.50;17.50;;;;;-146.03;100.00;60875.16;4971570;28;47203;-88
2022/03/22 09:45:29;;;;;;;;;23.25;20.75;;;;;-146.03;100.00;60875.16;4970150;28;45403;-88
2022/03/22 09:47:54;;;;;;;;;25.50;20.25;;;;;-146.03;100.00;60875.16;4970568;28;45374;-89
2022/03/22 09:51:44;;;;;;;;;20.75;19.50;;;;;-146.03;100.00;60875.16;4972900;28;45450;-88
2022/03/22 09:53:07;;;;;;;;;20.75;20.25;;;;;-146.03;100.00;60875.16;4966560;28;45936;-90
2022/03/22 09:55:34;;;;;;;;;18.50;18.00;;;;;-146.03;100.00;60875.16;4966058;28;45381;-89
2022/03/22 09:58:00;;;;;;;;;21.75;21.50;;;;;-146.03;100.00;60875.16;4968572;28;45492;-89
2022/03/22 10:00:26;;;;;;;;;17.50;17.50;;;;;-146.03;100.00;60875.16;4981532;28;45510;-90
2022/03/22 10:02:51;;;;;;;;;23.75;17.00;;;;;-146.03;100.00;60875.16;4976843;28;47187;-89
2022/03/22 10:05:22;;;;;;;;;20.50;19.75;;;;;-146.03;100.00;60875.16;4972818;28;45452;-91
2022/03/22 10:07:58;;;;;;;;;21.50;20.00;;;;;-146.03;100.00;60875.16;4976037;28;45406;-91
2022/03/22 10:10:24;;;;;;;;;20.00;19.00;;;;;-146.03;100.00;60875.16;4977604;28;45403;-91
2022/03/22 10:12:58;;;;;;;;;26.75;19.50;;;;;-146.03;100.00;60875.16;4965889;28;45722;-89
2022/03/22 10:15:29;;;;;;;;;22.00;19.50;;;;;-146.03;100.00;60875.16;4964901;28;45595;-90
2022/03/22 10:18:07;;;;;;;;;19.50;18.00;;;;;-146.03;100.00;60875.16;4961622;28;45484;-89
2022/03/22 10:20:36;;;;;;;;;19.00;18.50;;;;;-146.03;100.00;60875.16;4966629;28;45461;-90
2022/03/22 10:23:03;;;;;;;;;21.50;17.75;;;;;-146.03;100.00;60875.16;4974102;28;47432;-91
2022/03/22 10:25:33;;;;;;;;;21.50;19.75;;;;;-146.03;100.00;60875.16;4963819;28;46123;-94
2022/03/22 10:28:03;;;;;;;;;15.50;15.50;;;;;-146.03;100.00;60875.16;4967737;28;45575;-89
2022/03/22 10:30:30;;;;;;;;;22.75;20.00;;;;;-146.03;100.00;60875.16;4967495;28;45477;-90
2022/03/22 10:32:56;;;;;;;;;17.25;14.50;;;;;-146.03;100.00;60875.16;4974349;28;47215;-93
2022/03/22 10:35:28;;;;;;;;;16.50;16.50;;;;;-146.03;100.00;60875.16;4980097;28;46418;-96
2022/03/22 10:38:01;;;;;;;;;17.75;16.00;;;;;-146.03;100.00;60875.16;4968968;28;45528;-94
2022/03/22 10:40:40;;;;;;;;;22.00;19.25;;;;;-146.03;100.00;60875.16;4967964;28;45533;-93
2022/03/22 10:43:08;;;;;;;;;13.75;12.50;;;;;-146.03;100.00;60875.16;4976863;28;48023;-88
2022/03/22 10:45:42;;;;;;;;;20.25;18.75;;;;;-146.03;100.00;60875.16;4963550;28;45456;-90
2022/03/22 10:48:07;;;;;;;;;23.25;19.75;;;;;-146.03;100.00;60875.16;4963606;28;45331;-90
2022/03/22 10:50:38;;;;;;;;;17.00;16.00;;;;;-146.03;100.00;60875.16;4970622;28;45922;-89
2022/03/22 10:53:04;;;;;;;;;22.25;19.75;;;;;-146.03;100.00;60875.16;4960087;28;46508;-89
2022/03/22 10:55:30;;;;;;;;;18.75;17.00;;;;;-146.03;100.00;60875.16;4971299;28;45506;-90
2022/03/22 10:57:58;;;;;;;;;21.25;19.75;;;;;-146.03;100.00;60875.16;4967898;28;46498;-87
2022/03/22 11:00:26;;;;;;;;;20.00;18.25;;;;;-146.03;100.00;60875.16;4971301;28;45676;-88
2022/03/22 11:02:55;;;;;;;;;22.25;21.75;;;;;-146.03;100.00;60875.16;4959329;28;46162;-89
2022/03/22 11:05:23;;;;;;;;;20.25;18.50;;;;;-146.03;100.00;60875.16;4960300;28;45342;-91
2022/03/22 11:07:51;;;;;;;;;20.75;19.25;;;;;-146.03;100.00;60875.16;4957417;28;45648;-91
2022/03/22 11:10:30;;;;;;;;;23.50;22.75;;;;;-146.03;100.00;60875.16;4959229;28;45561;-88
2022/03/22 11:12:58;;;;;;;;;19.25;18.25;;;;;-146.03;100.00;60875.16;4958499;28;46541;-88
2022/03/22 11:15:25;;;;;;;;;23.00;22.25;;;;;-146.03;100.00;60875.16;4958295;28;45545;-89
2022/03/22 11:17:52;;;;;;;;;21.25;17.25;;;;;-146.03;100.00;60875.16;4965845;28;45584;-87
2022/03/22 11:20:17;;;;;;;;;18.00;17.50;;;;;-146.03;100.00;60875.16;4958555;28;45502;-90
2022/03/22 11:22:55;;;;;;;;;22.75;19.00;;;;;-146.03;100.00;60875.16;4969786;28;47862;-92
2022/03/22 11:25:31;;;;;;;;;21.50;21.50;;;;;-146.03;100.00;60875.16;4963371;28;45240;-91